createdAt,value
2018-03-20T00:01:14.855Z,3.20
2018-03-20T00:03:46.415Z,3.20
2018-03-20T00:06:20.936Z,3.30
2018-03-20T00:08:53.196Z,3.30
2018-03-20T00:11:27.515Z,3.30
2018-03-20T00:13:58.665Z,3.20
2018-03-20T00:16:32.976Z,3.40
2018-03-20T00:19:04.226Z,3.30
2018-03-20T00:21:35.365Z,3.20
2018-03-20T00:24:08.656Z,3.10
2018-03-20T00:26:45.436Z,3.10
2018-03-20T00:29:18.317Z,3.00
2018-03-20T00:31:51.555Z,3.10
2018-03-20T00:34:26.125Z,3.10
2018-03-20T00:37:00.636Z,3.10
2018-03-20T00:39:38.046Z,3.20
2018-03-20T00:42:10.580Z,3.10
2018-03-20T00:44:42.685Z,3.10
2018-03-20T00:47:13.526Z,3.10
2018-03-20T00:49:46.817Z,3.10
2018-03-20T00:52:18.166Z,2.90
2018-03-20T00:54:50.539Z,3.00
2018-03-20T00:57:22.196Z,3.00
2018-03-20T00:59:52.925Z,2.90
2018-03-20T01:02:27.855Z,3.00
2018-03-20T01:05:02.685Z,3.00
2018-03-20T01:07:34.235Z,3.00
2018-03-20T01:10:06.646Z,2.90
2018-03-20T01:12:39.995Z,3.00
2018-03-20T01:15:12.465Z,3.00
2018-03-20T01:17:47.946Z,3.10
2018-03-20T01:20:26.355Z,3.00
2018-03-20T01:22:58.192Z,3.00
2018-03-20T01:25:29.547Z,3.00
2018-03-20T01:28:01.296Z,2.90
2018-03-20T01:30:32.626Z,2.80
2018-03-20T01:33:05.727Z,2.80
2018-03-20T01:35:36.766Z,2.80
2018-03-20T01:38:10.086Z,2.90
2018-03-20T01:40:44.546Z,2.90
2018-03-20T01:43:18.385Z,2.90
2018-03-20T01:45:55.785Z,2.90
2018-03-20T01:48:27.156Z,2.90
2018-03-20T01:51:01.857Z,2.90
2018-03-20T01:53:34.226Z,2.80
2018-03-20T01:56:07.595Z,2.80
2018-03-20T01:58:38.895Z,2.80
2018-03-20T02:01:10.587Z,2.80
2018-03-20T02:03:44.835Z,2.80
2018-03-20T02:06:19.455Z,2.80
2018-03-20T02:08:51.015Z,2.80
2018-03-20T02:11:23.486Z,2.70
2018-03-20T02:13:56.676Z,2.80
2018-03-20T02:16:27.719Z,3.10
2018-03-20T02:19:03.057Z,3.00
2018-03-20T02:21:34.297Z,2.90
2018-03-20T02:24:15.376Z,2.80
2018-03-20T02:26:47.845Z,2.80
2018-03-20T02:29:19.195Z,2.80
2018-03-20T02:31:55.557Z,3.00
2018-03-20T02:34:26.845Z,3.00
2018-03-20T02:37:02.458Z,3.00
2018-03-20T02:39:34.135Z,3.00
2018-03-20T02:42:06.165Z,3.00
2018-03-20T02:44:37.037Z,3.00
2018-03-20T02:47:11.597Z,3.10
2018-03-20T02:49:46.555Z,3.20
2018-03-20T02:52:23.241Z,3.20
2018-03-20T02:54:55.506Z,3.20
2018-03-20T02:57:27.056Z,3.00
2018-03-20T02:59:57.926Z,3.00
2018-03-20T03:02:28.836Z,3.00
2018-03-20T03:05:00.215Z,3.00
2018-03-20T03:07:31.836Z,3.00
2018-03-20T03:10:02.706Z,2.90
2018-03-20T03:12:34.834Z,3.10
2018-03-20T03:15:06.906Z,2.90
2018-03-20T03:17:38.047Z,2.80
2018-03-20T03:20:08.875Z,2.70
2018-03-20T03:22:39.826Z,2.60
2018-03-20T03:25:12.796Z,2.50
2018-03-20T03:27:48.037Z,2.40
2018-03-20T03:30:28.569Z,2.40
2018-03-20T03:33:00.456Z,2.50
2018-03-20T03:35:32.527Z,2.50
2018-03-20T03:38:03.566Z,2.50
2018-03-20T03:40:35.416Z,2.50
2018-03-20T03:43:06.977Z,2.40
2018-03-20T03:45:38.546Z,2.50
2018-03-20T03:48:10.695Z,2.60
2018-03-20T03:50:41.846Z,2.60
2018-03-20T03:53:12.777Z,2.60
2018-03-20T03:55:45.076Z,2.60
2018-03-20T03:58:17.576Z,2.60
2018-03-20T04:00:49.686Z,2.60
2018-03-20T04:03:21.647Z,2.70
2018-03-20T04:05:53.846Z,2.70
2018-03-20T04:08:24.997Z,2.60
2018-03-20T04:10:57.025Z,2.60
2018-03-20T04:13:30.216Z,2.60
2018-03-20T04:16:02.706Z,2.60
2018-03-20T04:18:39.255Z,2.20
2018-03-20T04:21:10.745Z,2.70
2018-03-20T04:23:42.645Z,2.70
2018-03-20T04:26:14.626Z,2.70
2018-03-20T04:28:45.567Z,2.60
2018-03-20T04:31:17.740Z,2.60
2018-03-20T04:33:52.625Z,2.60
2018-03-20T04:36:26.364Z,2.70
2018-03-20T04:38:57.916Z,2.70
2018-03-20T04:41:31.305Z,2.80
2018-03-20T04:44:03.177Z,2.80
2018-03-20T04:46:38.925Z,2.80
2018-03-20T04:49:10.985Z,2.70
2018-03-20T04:51:41.727Z,2.70
2018-03-20T04:54:15.455Z,2.70
2018-03-20T04:56:47.696Z,2.70
2018-03-20T04:59:18.865Z,2.70
2018-03-20T05:01:50.686Z,2.30
2018-03-20T05:04:21.616Z,2.10
2018-03-20T05:06:52.876Z,2.00
2018-03-20T05:09:24.326Z,2.00
2018-03-20T05:11:55.636Z,2.10
2018-03-20T05:14:28.255Z,2.10
2018-03-20T05:17:00.456Z,2.30
2018-03-20T05:19:51.586Z,2.20
2018-03-20T05:25:14.095Z,2.50
2018-03-20T05:27:45.605Z,2.50
2018-03-20T05:30:17.395Z,2.60
2018-03-20T05:32:47.930Z,2.50
2018-03-20T05:35:19.995Z,2.20
2018-03-20T05:37:53.584Z,2.30
2018-03-20T05:40:24.656Z,2.00
2018-03-20T05:42:56.615Z,2.10
2018-03-20T05:45:29.066Z,2.20
2018-03-20T05:48:08.028Z,2.10
2018-03-20T05:50:47.425Z,2.10
2018-03-20T05:53:23.585Z,2.20
2018-03-20T05:55:54.625Z,2.20
2018-03-20T05:58:30.585Z,2.20
2018-03-20T06:01:02.241Z,2.20
2018-03-20T06:03:41.585Z,2.30
2018-03-20T06:06:15.289Z,2.20
2018-03-20T06:08:50.719Z,2.20
2018-03-20T06:11:21.446Z,2.30
2018-03-20T06:13:52.696Z,2.20
2018-03-20T06:16:23.925Z,2.10
2018-03-20T06:18:59.995Z,2.10
2018-03-20T06:21:35.604Z,2.30
2018-03-20T06:24:09.556Z,2.20
2018-03-20T06:26:44.695Z,2.30
2018-03-20T06:29:27.446Z,2.30
2018-03-20T06:32:05.637Z,2.20
2018-03-20T06:34:38.319Z,2.20
2018-03-20T06:37:13.031Z,2.30
2018-03-20T06:39:46.415Z,2.30
2018-03-20T06:42:17.384Z,2.30
2018-03-20T06:44:48.805Z,2.50
2018-03-20T06:47:21.376Z,2.60
2018-03-20T06:49:53.136Z,2.40
2018-03-20T06:52:25.595Z,2.40
2018-03-20T06:54:59.627Z,2.30
2018-03-20T06:57:30.866Z,2.20
2018-03-20T07:00:03.025Z,2.10
2018-03-20T07:02:34.785Z,1.90
2018-03-20T07:05:12.585Z,1.80
2018-03-20T07:07:47.606Z,1.90
2018-03-20T07:10:19.647Z,2.00
2018-03-20T07:12:56.605Z,1.90
2018-03-20T07:15:34.486Z,2.00
2018-03-20T07:18:08.364Z,2.00
2018-03-20T07:20:42.065Z,2.10
2018-03-20T07:23:15.645Z,1.90
2018-03-20T07:25:47.155Z,1.90
2018-03-20T07:28:20.347Z,1.90
2018-03-20T07:30:54.006Z,1.90
2018-03-20T07:33:28.027Z,1.90
2018-03-20T07:35:59.376Z,1.80
2018-03-20T07:38:31.126Z,1.90
2018-03-20T07:41:02.155Z,2.00
2018-03-20T07:43:34.168Z,2.00
2018-03-20T07:46:07.216Z,2.00
2018-03-20T07:48:38.565Z,2.10
2018-03-20T07:51:11.595Z,2.10
2018-03-20T07:53:43.107Z,2.30
2018-03-20T07:56:14.476Z,2.30
2018-03-20T07:58:45.077Z,2.30
2018-03-20T08:01:17.397Z,2.40
2018-03-20T08:03:48.095Z,2.30
2018-03-20T08:06:22.295Z,2.50
2018-03-20T08:08:53.747Z,2.60
2018-03-20T08:11:24.935Z,2.80
2018-03-20T08:13:56.786Z,3.00
2018-03-20T08:16:27.586Z,2.90
2018-03-20T08:19:02.656Z,3.00
2018-03-20T08:21:36.525Z,3.00
2018-03-20T08:24:09.304Z,2.90
2018-03-20T08:26:41.067Z,3.10
2018-03-20T08:29:14.768Z,3.20
2018-03-20T08:31:50.316Z,3.30
2018-03-20T08:34:21.475Z,3.30
2018-03-20T08:36:53.543Z,3.30
2018-03-20T08:39:25.576Z,3.40
2018-03-20T08:41:56.835Z,3.30
2018-03-20T08:44:28.686Z,3.20
2018-03-20T08:47:00.614Z,3.30
2018-03-20T08:49:31.486Z,3.30
2018-03-20T08:52:03.066Z,3.80
2018-03-20T08:54:34.936Z,3.90
2018-03-20T08:57:07.166Z,3.80
2018-03-20T08:59:38.925Z,3.90
2018-03-20T09:02:09.965Z,3.90
2018-03-20T09:04:44.795Z,3.90
2018-03-20T09:07:17.576Z,3.80
2018-03-20T09:09:50.045Z,3.80
2018-03-20T09:12:21.508Z,3.90
2018-03-20T09:14:53.145Z,3.80
2018-03-20T09:17:24.835Z,3.80
2018-03-20T09:20:00.436Z,3.80
2018-03-20T09:22:30.866Z,3.90
2018-03-20T09:25:01.754Z,4.10
2018-03-20T09:27:35.306Z,4.10
2018-03-20T09:30:06.856Z,4.00
2018-03-20T09:32:38.305Z,4.10
2018-03-20T09:35:12.225Z,4.10
2018-03-20T09:37:44.066Z,4.10
2018-03-20T09:40:15.706Z,4.00
2018-03-20T09:42:46.765Z,4.10
2018-03-20T09:45:18.524Z,4.10
2018-03-20T09:47:53.054Z,4.00
2018-03-20T09:50:26.155Z,4.00
2018-03-20T09:52:59.955Z,3.90
2018-03-20T09:55:33.965Z,3.90
2018-03-20T09:58:05.308Z,3.80
2018-03-20T10:00:41.275Z,3.70
2018-03-20T10:03:14.225Z,3.60
2018-03-20T10:05:46.197Z,3.60
2018-03-20T10:08:20.741Z,3.60
2018-03-20T10:10:52.185Z,3.70
2018-03-20T10:13:28.036Z,3.70
2018-03-20T10:16:03.068Z,3.90
2018-03-20T10:18:37.586Z,4.00
2018-03-20T10:21:08.865Z,3.90
2018-03-20T10:23:40.899Z,4.10
2018-03-20T10:26:11.939Z,4.20
2018-03-20T10:28:44.206Z,4.20
2018-03-20T10:31:18.325Z,4.30
2018-03-20T10:33:52.625Z,4.40
2018-03-20T10:36:28.994Z,4.50
2018-03-20T10:39:00.455Z,4.50
2018-03-20T10:41:33.772Z,4.40
2018-03-20T10:44:08.305Z,4.40
2018-03-20T10:46:40.569Z,4.40
2018-03-20T10:49:16.485Z,4.50
2018-03-20T10:51:49.475Z,4.60
2018-03-20T10:54:20.865Z,4.70
2018-03-20T10:56:52.485Z,4.80
2018-03-20T10:59:25.066Z,4.70
2018-03-20T11:02:02.248Z,4.80
2018-03-20T11:04:41.167Z,4.70
2018-03-20T11:07:13.025Z,4.80
2018-03-20T11:09:46.317Z,5.10
2018-03-20T11:12:17.255Z,5.30
2018-03-20T11:14:49.626Z,5.50
2018-03-20T11:17:22.716Z,5.40
2018-03-20T11:19:53.785Z,5.50
2018-03-20T11:22:26.086Z,5.60
2018-03-20T11:25:01.976Z,5.80
2018-03-20T11:27:33.325Z,5.90
2018-03-20T11:30:05.065Z,5.70
2018-03-20T11:32:41.655Z,5.60
2018-03-20T11:35:13.816Z,5.60
2018-03-20T11:37:46.596Z,5.10
2018-03-20T11:40:18.146Z,5.10
2018-03-20T11:42:49.285Z,5.10
2018-03-20T11:45:23.226Z,5.10
2018-03-20T11:47:56.288Z,5.10
2018-03-20T11:50:27.634Z,5.20
2018-03-20T11:53:06.043Z,5.20
2018-03-20T11:55:39.184Z,5.20
2018-03-20T11:58:11.145Z,5.30
2018-03-20T12:00:42.695Z,5.40
2018-03-20T12:03:14.845Z,4.50
2018-03-20T12:05:46.685Z,5.30
2018-03-20T12:08:32.066Z,5.30
2018-03-20T12:11:12.236Z,5.20
2018-03-20T12:13:43.865Z,5.20
2018-03-20T12:16:17.655Z,5.20
2018-03-20T12:18:49.324Z,5.10
2018-03-20T12:21:28.455Z,5.00
2018-03-20T12:24:05.955Z,5.20
2018-03-20T12:26:42.011Z,5.30
2018-03-20T12:29:16.326Z,5.30
2018-03-20T12:31:51.383Z,5.40
2018-03-20T12:34:28.844Z,5.40
2018-03-20T12:37:01.345Z,5.40
2018-03-20T12:39:33.916Z,5.50
2018-03-20T12:42:05.954Z,5.50
2018-03-20T12:44:39.346Z,5.40
2018-03-20T12:47:20.015Z,5.40
2018-03-20T12:49:51.974Z,5.50
2018-03-20T12:52:22.845Z,5.60
2018-03-20T12:54:57.645Z,5.60
2018-03-20T12:57:33.597Z,5.70
2018-03-20T13:00:10.045Z,5.80
2018-03-20T13:02:42.715Z,5.80
2018-03-20T13:05:16.156Z,6.00
2018-03-20T13:07:48.445Z,5.80
2018-03-20T13:10:24.196Z,5.70
2018-03-20T13:12:56.175Z,5.80
2018-03-20T13:15:28.294Z,5.70
2018-03-20T13:18:00.355Z,5.60
2018-03-20T13:20:42.075Z,5.70
2018-03-20T13:23:13.272Z,5.50
2018-03-20T13:25:49.854Z,5.50
2018-03-20T13:28:21.975Z,5.50
2018-03-20T13:30:54.086Z,5.50
2018-03-20T13:33:25.725Z,5.70
2018-03-20T13:35:56.276Z,5.80
2018-03-20T13:38:29.765Z,5.90
2018-03-20T13:41:01.484Z,6.00
2018-03-20T13:43:33.166Z,6.00
2018-03-20T13:46:05.966Z,6.10
2018-03-20T13:48:37.695Z,6.10
2018-03-20T13:51:10.089Z,6.10
2018-03-20T13:53:45.235Z,6.10
2018-03-20T13:56:20.975Z,6.20
2018-03-20T13:58:53.405Z,5.80
2018-03-20T14:01:24.415Z,5.80
2018-03-20T14:03:58.016Z,5.90
2018-03-20T14:06:32.005Z,6.00
2018-03-20T14:09:03.464Z,6.00
2018-03-20T14:11:35.425Z,6.00
2018-03-20T14:14:08.255Z,6.00
2018-03-20T14:16:41.794Z,5.90
2018-03-20T14:19:15.004Z,5.90
2018-03-20T14:21:48.524Z,6.00
2018-03-20T14:24:19.695Z,6.00
2018-03-20T14:26:50.566Z,6.10
2018-03-20T14:29:23.254Z,6.20
2018-03-20T14:32:05.945Z,6.20
2018-03-20T14:34:36.895Z,6.10
2018-03-20T14:37:09.155Z,6.10
2018-03-20T14:39:41.165Z,6.30
2018-03-20T14:42:14.205Z,5.80
2018-03-20T14:44:50.166Z,6.20
2018-03-20T14:47:23.963Z,6.10
2018-03-20T14:49:55.035Z,5.90
2018-03-20T14:52:27.077Z,5.80
2018-03-20T14:55:01.152Z,5.80
2018-03-20T14:57:33.496Z,5.90
2018-03-20T15:00:11.144Z,6.00
2018-03-20T15:02:43.415Z,6.10
2018-03-20T15:05:15.324Z,6.10
2018-03-20T15:07:47.035Z,6.10
2018-03-20T15:10:20.935Z,6.20
2018-03-20T15:12:54.757Z,6.20
2018-03-20T15:15:26.855Z,6.30
2018-03-20T15:17:58.674Z,6.30
2018-03-20T15:20:30.875Z,6.20
2018-03-20T15:23:04.338Z,6.20
2018-03-20T15:25:38.375Z,6.10
2018-03-20T15:28:11.142Z,5.90
2018-03-20T15:30:51.495Z,5.80
2018-03-20T15:33:24.076Z,5.80
2018-03-20T15:35:55.405Z,5.90
2018-03-20T15:38:27.821Z,5.70
2018-03-20T15:41:01.795Z,5.60
2018-03-20T15:43:32.775Z,5.60
2018-03-20T15:46:08.205Z,5.50
2018-03-20T15:48:40.065Z,5.50
2018-03-20T15:51:11.176Z,5.60
2018-03-20T15:53:42.625Z,5.60
2018-03-20T15:56:14.185Z,5.70
2018-03-20T15:58:47.556Z,5.60
2018-03-20T16:01:23.205Z,5.60
2018-03-20T16:03:54.967Z,5.60
2018-03-20T16:06:29.395Z,5.50
2018-03-20T16:09:01.756Z,5.60
2018-03-20T16:11:38.969Z,5.60
2018-03-20T16:14:11.056Z,5.70
2018-03-20T16:16:47.895Z,5.80
2018-03-20T16:19:22.874Z,5.80
2018-03-20T16:21:56.025Z,5.80
2018-03-20T16:24:28.615Z,5.80
2018-03-20T16:26:59.536Z,5.70
2018-03-20T16:29:32.015Z,5.50
2018-03-20T16:32:03.965Z,5.50
2018-03-20T16:34:36.446Z,5.40
2018-03-20T16:37:08.224Z,5.50
2018-03-20T16:39:39.696Z,5.50
2018-03-20T16:42:13.686Z,5.50
2018-03-20T16:44:48.208Z,5.50
2018-03-20T16:47:19.746Z,5.50
2018-03-20T16:49:52.517Z,5.40
2018-03-20T16:52:24.475Z,5.40
2018-03-20T16:54:58.243Z,5.50
2018-03-20T16:57:30.546Z,5.30
2018-03-20T17:00:03.008Z,5.30
2018-03-20T17:02:43.795Z,5.30
2018-03-20T17:05:18.725Z,5.40
2018-03-20T17:07:50.126Z,5.30
2018-03-20T17:10:22.556Z,5.30
2018-03-20T17:12:57.175Z,5.20
2018-03-20T17:15:29.956Z,5.30
2018-03-20T17:18:06.855Z,5.30
2018-03-20T17:20:41.505Z,5.30
2018-03-20T17:23:13.116Z,5.20
2018-03-20T17:25:45.366Z,5.20
2018-03-20T17:28:20.652Z,5.10
2018-03-20T17:30:54.949Z,5.10
2018-03-20T17:33:29.736Z,5.10
2018-03-20T17:36:01.005Z,5.10
2018-03-20T17:38:36.726Z,5.10
2018-03-20T17:41:08.926Z,5.20
2018-03-20T17:43:41.695Z,5.10
2018-03-20T17:46:14.303Z,5.00
2018-03-20T17:48:45.156Z,5.00
2018-03-20T17:51:16.199Z,4.90
2018-03-20T17:53:49.655Z,5.00
2018-03-20T17:56:24.372Z,5.00
2018-03-20T17:58:56.705Z,5.00
2018-03-20T18:01:29.636Z,5.00
2018-03-20T18:04:01.439Z,4.90
2018-03-20T18:06:33.420Z,4.90
2018-03-20T18:09:07.705Z,4.80
2018-03-20T18:11:42.444Z,4.80
2018-03-20T18:14:15.087Z,4.80
2018-03-20T18:16:48.406Z,4.90
2018-03-20T18:19:19.706Z,5.00
2018-03-20T18:21:51.765Z,5.00
2018-03-20T18:24:24.060Z,5.10
2018-03-20T18:26:56.526Z,5.00
2018-03-20T18:29:29.929Z,5.10
2018-03-20T18:32:03.046Z,5.10
2018-03-20T18:34:34.535Z,5.30
2018-03-20T18:37:07.226Z,4.70
2018-03-20T18:39:41.896Z,4.60
2018-03-20T18:42:14.856Z,4.50
2018-03-20T18:44:47.701Z,4.50
2018-03-20T18:47:19.696Z,4.30
2018-03-20T18:49:50.611Z,4.30
2018-03-20T18:52:20.726Z,4.30
2018-03-20T18:54:52.855Z,4.30
2018-03-20T18:57:24.474Z,4.20
2018-03-20T18:59:57.230Z,4.20
2018-03-20T19:02:29.418Z,4.20
2018-03-20T19:05:03.205Z,4.20
2018-03-20T19:07:35.195Z,4.20
2018-03-20T19:10:12.257Z,4.10
2018-03-20T19:12:44.691Z,4.20
2018-03-20T19:15:15.677Z,4.00
2018-03-20T19:17:48.045Z,4.00
2018-03-20T19:20:22.755Z,4.10
2018-03-20T19:22:55.146Z,4.10
2018-03-20T19:25:27.006Z,4.20
2018-03-20T19:27:59.276Z,4.20
2018-03-20T19:30:33.390Z,4.20
2018-03-20T19:33:05.446Z,4.30
2018-03-20T19:35:39.707Z,4.20
2018-03-20T19:38:10.946Z,4.00
2018-03-20T19:40:43.316Z,3.90
2018-03-20T19:43:14.555Z,3.90
2018-03-20T19:45:48.316Z,4.00
2018-03-20T19:48:20.496Z,4.10
2018-03-20T19:50:53.267Z,4.10
2018-03-20T19:53:28.826Z,4.20
2018-03-20T19:55:59.347Z,4.80
2018-03-20T19:58:30.596Z,4.20
2018-03-20T20:01:01.836Z,4.30
2018-03-20T20:03:36.716Z,4.40
2018-03-20T20:06:09.176Z,4.40
2018-03-20T20:08:41.346Z,4.30
2018-03-20T20:11:13.886Z,4.20
2018-03-20T20:13:48.616Z,4.30
2018-03-20T20:16:20.265Z,4.40
2018-03-20T20:18:55.416Z,4.50
2018-03-20T20:21:28.714Z,4.40
2018-03-20T20:24:00.047Z,4.50
2018-03-20T20:26:32.260Z,4.50
2018-03-20T20:29:05.976Z,4.60
2018-03-20T20:31:37.296Z,4.50
2018-03-20T20:34:09.336Z,4.40
2018-03-20T20:36:42.616Z,4.40
2018-03-20T20:39:15.136Z,4.30
2018-03-20T20:41:49.237Z,4.50
2018-03-20T20:44:19.745Z,4.40
2018-03-20T20:46:52.136Z,4.50
2018-03-20T20:49:26.836Z,4.30
2018-03-20T20:51:58.596Z,4.30
2018-03-20T20:54:30.249Z,4.60
2018-03-20T20:57:01.321Z,4.40
2018-03-20T20:59:35.806Z,4.40
2018-03-20T21:02:06.947Z,4.30
2018-03-20T21:04:39.006Z,4.30
2018-03-20T21:07:11.075Z,4.10
2018-03-20T21:09:43.544Z,4.00
2018-03-20T21:12:17.855Z,4.10
2018-03-20T21:14:49.156Z,4.20
2018-03-20T21:17:22.106Z,4.10
2018-03-20T21:19:54.471Z,4.00
2018-03-20T21:22:26.536Z,4.00
2018-03-20T21:24:59.456Z,4.00
2018-03-20T21:27:31.676Z,4.00
2018-03-20T21:30:04.876Z,4.00
2018-03-20T21:32:36.726Z,4.10
2018-03-20T21:35:08.216Z,4.10
2018-03-20T21:37:42.906Z,4.00
2018-03-20T21:40:14.715Z,4.10
2018-03-20T21:42:47.370Z,4.00
2018-03-20T21:45:19.555Z,3.90
2018-03-20T21:47:52.590Z,3.90
2018-03-20T21:50:25.745Z,3.90
2018-03-20T21:52:58.976Z,3.80
2018-03-20T21:55:30.991Z,3.90
2018-03-20T21:58:01.986Z,4.00
2018-03-20T22:00:33.948Z,3.80
2018-03-20T22:03:06.025Z,3.70
2018-03-20T22:05:38.278Z,3.70
2018-03-20T22:08:11.465Z,3.80
2018-03-20T22:10:42.794Z,3.80
2018-03-20T22:13:14.976Z,3.80
2018-03-20T22:15:46.836Z,3.80
2018-03-20T22:18:18.025Z,3.70
2018-03-20T22:20:51.597Z,3.80
2018-03-20T22:23:25.289Z,3.90
2018-03-20T22:25:59.206Z,3.90
2018-03-20T22:28:30.246Z,3.90
2018-03-20T22:31:01.895Z,4.00
2018-03-20T22:33:40.736Z,4.00
2018-03-20T22:36:12.747Z,4.00
2018-03-20T22:38:44.437Z,4.10
2018-03-20T22:41:15.886Z,5.20
2018-03-20T22:43:47.755Z,4.10
2018-03-20T22:46:27.186Z,4.10
2018-03-20T22:48:58.476Z,4.10
2018-03-20T22:51:33.976Z,4.20
2018-03-20T22:54:04.905Z,4.20
2018-03-20T22:56:43.626Z,4.20
2018-03-20T22:59:15.416Z,4.10
2018-03-20T23:01:47.345Z,4.00
2018-03-20T23:04:25.775Z,4.10
2018-03-20T23:07:06.627Z,4.10
2018-03-20T23:09:39.916Z,4.10
2018-03-20T23:12:13.727Z,4.00
2018-03-20T23:14:46.816Z,3.90
2018-03-20T23:17:18.272Z,3.90
2018-03-20T23:19:50.865Z,3.80
2018-03-20T23:22:25.377Z,3.80
2018-03-20T23:24:57.136Z,3.70
2018-03-20T23:27:32.677Z,3.70
2018-03-20T23:30:07.237Z,3.80
2018-03-20T23:32:38.137Z,3.80
2018-03-20T23:35:11.807Z,3.80
2018-03-20T23:37:42.466Z,3.70
2018-03-20T23:40:16.986Z,3.70
2018-03-20T23:42:48.345Z,3.70
2018-03-20T23:45:19.465Z,3.70
2018-03-20T23:47:48.466Z,3.70
2018-03-20T23:50:23.136Z,3.70
2018-03-20T23:52:56.766Z,3.70
2018-03-20T23:55:28.067Z,3.60
2018-03-20T23:58:02.249Z,3.60
